sensor_id;sensor_type;location;lat;lon;timestamp;temperature;humidity
83405;SHT30;73331;48.168;20.776;2024-01-10T00:00:15;-7.66;74.51
83405;SHT30;73331;48.168;20.776;2024-01-10T00:01:45;-7.69;74.21
83405;SHT30;73331;48.168;20.776;2024-01-10T00:03:16;-7.73;74.22
83405;SHT30;73331;48.168;20.776;2024-01-10T00:04:47;-7.68;74.43
83405;SHT30;73331;48.168;20.776;2024-01-10T00:06:17;-7.73;74.53
83405;SHT30;73331;48.168;20.776;2024-01-10T00:07:48;-7.72;74.87
83405;SHT30;73331;48.168;20.776;2024-01-10T00:09:18;-7.63;75.12
83405;SHT30;73331;48.168;20.776;2024-01-10T00:10:49;-7.65;75.28
83405;SHT30;73331;48.168;20.776;2024-01-10T00:12:19;-7.56;74.86
83405;SHT30;73331;48.168;20.776;2024-01-10T00:13:50;-7.54;74.71
83405;SHT30;73331;48.168;20.776;2024-01-10T00:15:20;-7.52;74.58
83405;SHT30;73331;48.168;20.776;2024-01-10T00:16:51;-7.49;74.43
83405;SHT30;73331;48.168;20.776;2024-01-10T00:18:22;-7.41;74.39
83405;SHT30;73331;48.168;20.776;2024-01-10T00:19:52;-7.45;74.19
83405;SHT30;73331;48.168;20.776;2024-01-10T00:21:23;-7.32;74.46
83405;SHT30;73331;48.168;20.776;2024-01-10T00:22:53;-7.08;72.86
83405;SHT30;73331;48.168;20.776;2024-01-10T00:24:24;-7.08;71.75
83405;SHT30;73331;48.168;20.776;2024-01-10T00:25:54;-7.08;71.58
83405;SHT30;73331;48.168;20.776;2024-01-10T00:27:25;-7.36;72.14
83405;SHT30;73331;48.168;20.776;2024-01-10T00:28:55;-7.54;72.38
83405;SHT30;73331;48.168;20.776;2024-01-10T00:30:26;-7.66;72.77
83405;SHT30;73331;48.168;20.776;2024-01-10T00:31:57;-7.63;72.03
83405;SHT30;73331;48.168;20.776;2024-01-10T00:33:29;-7.66;71.11
83405;SHT30;73331;48.168;20.776;2024-01-10T00:35:00;-7.60;70.85
83405;SHT30;73331;48.168;20.776;2024-01-10T00:36:31;-7.48;70.22
83405;SHT30;73331;48.168;20.776;2024-01-10T00:38:01;-7.55;71.09
83405;SHT30;73331;48.168;20.776;2024-01-10T00:39:32;-7.59;72.22
83405;SHT30;73331;48.168;20.776;2024-01-10T00:41:02;-7.55;72.17
83405;SHT30;73331;48.168;20.776;2024-01-10T00:42:33;-7.51;72.63
83405;SHT30;73331;48.168;20.776;2024-01-10T00:44:04;-7.46;72.38
83405;SHT30;73331;48.168;20.776;2024-01-10T00:45:34;-7.52;72.62
83405;SHT30;73331;48.168;20.776;2024-01-10T00:47:05;-7.48;72.37
83405;SHT30;73331;48.168;20.776;2024-01-10T00:48:35;-7.54;71.43
83405;SHT30;73331;48.168;20.776;2024-01-10T00:50:06;-7.68;71.33
83405;SHT30;73331;48.168;20.776;2024-01-10T00:51:37;-7.75;71.80
83405;SHT30;73331;48.168;20.776;2024-01-10T00:53:07;-7.69;71.68
83405;SHT30;73331;48.168;20.776;2024-01-10T00:54:38;-7.73;71.17
83405;SHT30;73331;48.168;20.776;2024-01-10T00:56:09;-7.76;71.14
83405;SHT30;73331;48.168;20.776;2024-01-10T00:57:40;-7.81;71.45
83405;SHT30;73331;48.168;20.776;2024-01-10T00:59:10;-7.38;71.45
83405;SHT30;73331;48.168;20.776;2024-01-10T01:00:41;-6.99;70.82
83405;SHT30;73331;48.168;20.776;2024-01-10T01:02:11;-6.89;70.99
83405;SHT30;73331;48.168;20.776;2024-01-10T01:03:42;-6.79;71.12
83405;SHT30;73331;48.168;20.776;2024-01-10T01:05:13;-6.79;71.34
83405;SHT30;73331;48.168;20.776;2024-01-10T01:06:44;-6.79;71.60
83405;SHT30;73331;48.168;20.776;2024-01-10T01:08:14;-7.10;72.54
83405;SHT30;73331;48.168;20.776;2024-01-10T01:09:45;-7.48;74.19
83405;SHT30;73331;48.168;20.776;2024-01-10T01:11:15;-7.68;75.56
83405;SHT30;73331;48.168;20.776;2024-01-10T01:12:46;-7.71;76.06
83405;SHT30;73331;48.168;20.776;2024-01-10T01:14:16;-7.82;76.11
83405;SHT30;73331;48.168;20.776;2024-01-10T01:15:47;-7.82;76.29
83405;SHT30;73331;48.168;20.776;2024-01-10T01:17:18;-7.75;76.14
83405;SHT30;73331;48.168;20.776;2024-01-10T01:18:48;-7.83;76.17
83405;SHT30;73331;48.168;20.776;2024-01-10T01:20:19;-7.83;76.60
83405;SHT30;73331;48.168;20.776;2024-01-10T01:21:49;-7.90;76.67
83405;SHT30;73331;48.168;20.776;2024-01-10T01:23:20;-7.79;75.58
83405;SHT30;73331;48.168;20.776;2024-01-10T01:24:50;-7.85;75.39
83405;SHT30;73331;48.168;20.776;2024-01-10T01:26:21;-7.85;75.66
83405;SHT30;73331;48.168;20.776;2024-01-10T01:27:52;-7.51;74.75
83405;SHT30;73331;48.168;20.776;2024-01-10T01:29:22;-7.28;74.05
83405;SHT30;73331;48.168;20.776;2024-01-10T01:30:53;-7.07;73.05
83405;SHT30;73331;48.168;20.776;2024-01-10T01:32:23;-6.93;72.53
83405;SHT30;73331;48.168;20.776;2024-01-10T01:33:54;-6.89;72.43
83405;SHT30;73331;48.168;20.776;2024-01-10T01:35:24;-6.83;72.23
83405;SHT30;73331;48.168;20.776;2024-01-10T01:36:55;-6.99;72.51
83405;SHT30;73331;48.168;20.776;2024-01-10T01:38:26;-7.03;72.90
83405;SHT30;73331;48.168;20.776;2024-01-10T01:39:57;-7.38;73.85
83405;SHT30;73331;48.168;20.776;2024-01-10T01:41:27;-7.08;73.60
83405;SHT30;73331;48.168;20.776;2024-01-10T01:42:58;-7.00;73.02
83405;SHT30;73331;48.168;20.776;2024-01-10T01:44:28;-7.11;73.76
83405;SHT30;73331;48.168;20.776;2024-01-10T01:45:59;-7.18;73.51
83405;SHT30;73331;48.168;20.776;2024-01-10T01:47:30;-7.11;73.85
83405;SHT30;73331;48.168;20.776;2024-01-10T01:49:01;-7.12;74.29
83405;SHT30;73331;48.168;20.776;2024-01-10T01:50:32;-6.99;74.01
83405;SHT30;73331;48.168;20.776;2024-01-10T01:52:03;-7.05;74.21
83405;SHT30;73331;48.168;20.776;2024-01-10T01:53:35;-7.04;74.02
83405;SHT30;73331;48.168;20.776;2024-01-10T01:55:07;-7.01;73.30
83405;SHT30;73331;48.168;20.776;2024-01-10T01:56:38;-7.04;73.22
83405;SHT30;73331;48.168;20.776;2024-01-10T01:58:10;-7.14;73.89
83405;SHT30;73331;48.168;20.776;2024-01-10T01:59:41;-7.04;73.93
83405;SHT30;73331;48.168;20.776;2024-01-10T02:01:11;-7.07;74.28
83405;SHT30;73331;48.168;20.776;2024-01-10T02:02:43;-7.45;75.52
83405;SHT30;73331;48.168;20.776;2024-01-10T02:04:14;-7.24;75.70
83405;SHT30;73331;48.168;20.776;2024-01-10T02:05:45;-7.14;75.09
83405;SHT30;73331;48.168;20.776;2024-01-10T02:07:16;-7.22;75.05
83405;SHT30;73331;48.168;20.776;2024-01-10T02:08:47;-7.22;75.79
83405;SHT30;73331;48.168;20.776;2024-01-10T02:10:19;-7.46;76.17
83405;SHT30;73331;48.168;20.776;2024-01-10T02:11:49;-7.30;76.11
83405;SHT30;73331;48.168;20.776;2024-01-10T02:13:21;-7.35;75.88
83405;SHT30;73331;48.168;20.776;2024-01-10T02:14:52;-7.68;77.32
83405;SHT30;73331;48.168;20.776;2024-01-10T02:16:23;-8.05;78.81
83405;SHT30;73331;48.168;20.776;2024-01-10T02:17:54;-8.24;80.00
83405;SHT30;73331;48.168;20.776;2024-01-10T02:19:26;-8.31;80.61
83405;SHT30;73331;48.168;20.776;2024-01-10T02:20:57;-8.38;80.85
83405;SHT30;73331;48.168;20.776;2024-01-10T02:22:28;-8.37;81.03
83405;SHT30;73331;48.168;20.776;2024-01-10T02:23:58;-8.37;81.18
83405;SHT30;73331;48.168;20.776;2024-01-10T02:25:29;-8.42;81.38
83405;SHT30;73331;48.168;20.776;2024-01-10T02:27:00;-8.42;81.58
83405;SHT30;73331;48.168;20.776;2024-01-10T02:28:31;-8.45;81.81
83405;SHT30;73331;48.168;20.776;2024-01-10T02:30:05;-8.45;82.20
83405;SHT30;73331;48.168;20.776;2024-01-10T02:31:36;-8.42;82.23
83405;SHT30;73331;48.168;20.776;2024-01-10T02:33:06;-8.44;82.46
83405;SHT30;73331;48.168;20.776;2024-01-10T02:34:37;-8.47;82.58
83405;SHT30;73331;48.168;20.776;2024-01-10T02:36:07;-8.51;82.79
83405;SHT30;73331;48.168;20.776;2024-01-10T02:37:38;-8.48;82.23
83405;SHT30;73331;48.168;20.776;2024-01-10T02:39:08;-8.54;81.12
83405;SHT30;73331;48.168;20.776;2024-01-10T02:40:39;-8.60;80.46
83405;SHT30;73331;48.168;20.776;2024-01-10T02:42:10;-8.62;80.21
83405;SHT30;73331;48.168;20.776;2024-01-10T02:43:40;-8.64;80.15
83405;SHT30;73331;48.168;20.776;2024-01-10T02:45:11;-8.58;80.14
83405;SHT30;73331;48.168;20.776;2024-01-10T02:46:41;-8.62;80.04
83405;SHT30;73331;48.168;20.776;2024-01-10T02:48:12;-8.64;80.05
83405;SHT30;73331;48.168;20.776;2024-01-10T02:49:42;-8.65;80.10
83405;SHT30;73331;48.168;20.776;2024-01-10T02:51:13;-8.61;79.59
83405;SHT30;73331;48.168;20.776;2024-01-10T02:52:43;-8.51;79.00
83405;SHT30;73331;48.168;20.776;2024-01-10T02:54:14;-8.42;79.02
83405;SHT30;73331;48.168;20.776;2024-01-10T02:55:44;-8.48;79.21
83405;SHT30;73331;48.168;20.776;2024-01-10T02:57:16;-8.42;79.44
83405;SHT30;73331;48.168;20.776;2024-01-10T02:58:47;-8.42;79.28
83405;SHT30;73331;48.168;20.776;2024-01-10T03:00:18;-8.36;78.94
83405;SHT30;73331;48.168;20.776;2024-01-10T03:01:48;-8.51;78.07
83405;SHT30;73331;48.168;20.776;2024-01-10T03:03:18;-8.57;77.19
83405;SHT30;73331;48.168;20.776;2024-01-10T03:04:49;-8.60;76.67
83405;SHT30;73331;48.168;20.776;2024-01-10T03:06:20;-8.58;76.32
83405;SHT30;73331;48.168;20.776;2024-01-10T03:07:50;-8.58;76.82
83405;SHT30;73331;48.168;20.776;2024-01-10T03:09:22;-8.54;78.35
83405;SHT30;73331;48.168;20.776;2024-01-10T03:10:52;-8.47;79.46
83405;SHT30;73331;48.168;20.776;2024-01-10T03:12:23;-8.50;79.67
83405;SHT30;73331;48.168;20.776;2024-01-10T03:14:02;-8.36;79.57
83405;SHT30;73331;48.168;20.776;2024-01-10T03:15:34;-8.44;79.60
83405;SHT30;73331;48.168;20.776;2024-01-10T03:17:04;-8.42;79.33
83405;SHT30;73331;48.168;20.776;2024-01-10T03:18:35;-8.42;79.08
83405;SHT30;73331;48.168;20.776;2024-01-10T03:20:06;-8.38;78.33
83405;SHT30;73331;48.168;20.776;2024-01-10T03:21:38;-8.41;77.60
83405;SHT30;73331;48.168;20.776;2024-01-10T03:23:09;-8.36;76.76
83405;SHT30;73331;48.168;20.776;2024-01-10T03:24:39;-8.28;76.79
83405;SHT30;73331;48.168;20.776;2024-01-10T03:26:10;-8.24;77.31
83405;SHT30;73331;48.168;20.776;2024-01-10T03:27:41;-8.16;77.58
83405;SHT30;73331;48.168;20.776;2024-01-10T03:29:11;-8.24;78.61
83405;SHT30;73331;48.168;20.776;2024-01-10T03:30:42;-8.28;79.30
83405;SHT30;73331;48.168;20.776;2024-01-10T03:32:12;-8.30;79.50
83405;SHT30;73331;48.168;20.776;2024-01-10T03:33:44;-8.34;79.87
83405;SHT30;73331;48.168;20.776;2024-01-10T03:35:14;-8.13;79.89
83405;SHT30;73331;48.168;20.776;2024-01-10T03:36:45;-8.06;78.81
83405;SHT30;73331;48.168;20.776;2024-01-10T03:38:15;-8.23;78.14
83405;SHT30;73331;48.168;20.776;2024-01-10T03:39:46;-8.50;76.19
83405;SHT30;73331;48.168;20.776;2024-01-10T03:41:18;-8.51;75.63
83405;SHT30;73331;48.168;20.776;2024-01-10T03:42:49;-8.55;75.30
83405;SHT30;73331;48.168;20.776;2024-01-10T03:44:19;-8.30;75.20
83405;SHT30;73331;48.168;20.776;2024-01-10T03:45:50;-7.96;74.23
83405;SHT30;73331;48.168;20.776;2024-01-10T03:47:20;-7.63;74.22
83405;SHT30;73331;48.168;20.776;2024-01-10T03:48:51;-7.42;74.61
83405;SHT30;73331;48.168;20.776;2024-01-10T03:50:22;-7.41;74.82
83405;SHT30;73331;48.168;20.776;2024-01-10T03:51:53;-7.38;74.86
83405;SHT30;73331;48.168;20.776;2024-01-10T03:53:24;-7.45;75.19
83405;SHT30;73331;48.168;20.776;2024-01-10T03:54:54;-7.28;74.67
83405;SHT30;73331;48.168;20.776;2024-01-10T03:56:25;-7.22;74.44
83405;SHT30;73331;48.168;20.776;2024-01-10T03:57:56;-7.22;74.34
83405;SHT30;73331;48.168;20.776;2024-01-10T03:59:27;-7.28;74.56
83405;SHT30;73331;48.168;20.776;2024-01-10T04:00:57;-7.45;74.90
83405;SHT30;73331;48.168;20.776;2024-01-10T04:02:28;-7.35;75.00
83405;SHT30;73331;48.168;20.776;2024-01-10T04:03:58;-7.30;74.66
83405;SHT30;73331;48.168;20.776;2024-01-10T04:05:30;-7.36;74.96
83405;SHT30;73331;48.168;20.776;2024-01-10T04:07:00;-7.32;74.51
83405;SHT30;73331;48.168;20.776;2024-01-10T04:08:31;-7.32;74.56
83405;SHT30;73331;48.168;20.776;2024-01-10T04:10:02;-7.34;74.33
83405;SHT30;73331;48.168;20.776;2024-01-10T04:11:33;-7.35;74.47
83405;SHT30;73331;48.168;20.776;2024-01-10T04:13:03;-7.35;74.30
83405;SHT30;73331;48.168;20.776;2024-01-10T04:14:35;-7.34;73.83
83405;SHT30;73331;48.168;20.776;2024-01-10T04:16:06;-7.38;74.02
83405;SHT30;73331;48.168;20.776;2024-01-10T04:17:37;-7.36;73.98
83405;SHT30;73331;48.168;20.776;2024-01-10T04:19:07;-7.38;73.97
83405;SHT30;73331;48.168;20.776;2024-01-10T04:20:38;-7.52;74.78
83405;SHT30;73331;48.168;20.776;2024-01-10T04:22:08;-7.56;75.15
83405;SHT30;73331;48.168;20.776;2024-01-10T04:23:39;-7.87;75.70
83405;SHT30;73331;48.168;20.776;2024-01-10T04:25:11;-7.99;76.48
83405;SHT30;73331;48.168;20.776;2024-01-10T04:26:41;-7.85;76.20
83405;SHT30;73331;48.168;20.776;2024-01-10T04:28:12;-7.90;76.50
83405;SHT30;73331;48.168;20.776;2024-01-10T04:29:42;-7.69;75.97
83405;SHT30;73331;48.168;20.776;2024-01-10T04:31:13;-7.62;75.71
83405;SHT30;73331;48.168;20.776;2024-01-10T04:32:44;-7.68;75.83
83405;SHT30;73331;48.168;20.776;2024-01-10T04:34:14;-7.71;76.35
83405;SHT30;73331;48.168;20.776;2024-01-10T04:35:45;-7.79;76.37
83405;SHT30;73331;48.168;20.776;2024-01-10T04:37:16;-7.85;76.53
83405;SHT30;73331;48.168;20.776;2024-01-10T04:38:46;-7.87;77.27
83405;SHT30;73331;48.168;20.776;2024-01-10T04:40:17;-7.86;77.36
83405;SHT30;73331;48.168;20.776;2024-01-10T04:41:48;-7.89;77.23
83405;SHT30;73331;48.168;20.776;2024-01-10T04:43:19;-8.20;78.22
83405;SHT30;73331;48.168;20.776;2024-01-10T04:44:50;-8.44;79.51
83405;SHT30;73331;48.168;20.776;2024-01-10T04:46:20;-8.52;79.91
83405;SHT30;73331;48.168;20.776;2024-01-10T04:47:51;-8.40;80.25
83405;SHT30;73331;48.168;20.776;2024-01-10T04:49:22;-8.41;80.68
83405;SHT30;73331;48.168;20.776;2024-01-10T04:50:53;-8.17;79.88
83405;SHT30;73331;48.168;20.776;2024-01-10T04:52:24;-7.79;77.99
83405;SHT30;73331;48.168;20.776;2024-01-10T04:53:54;-7.90;77.55
83405;SHT30;73331;48.168;20.776;2024-01-10T04:55:26;-7.83;77.59
83405;SHT30;73331;48.168;20.776;2024-01-10T04:56:56;-7.69;76.86
83405;SHT30;73331;48.168;20.776;2024-01-10T04:58:27;-7.81;76.88
83405;SHT30;73331;48.168;20.776;2024-01-10T04:59:59;-7.75;76.96
83405;SHT30;73331;48.168;20.776;2024-01-10T05:01:30;-7.82;76.79
83405;SHT30;73331;48.168;20.776;2024-01-10T05:03:00;-7.97;77.39
83405;SHT30;73331;48.168;20.776;2024-01-10T05:04:31;-8.06;77.77
83405;SHT30;73331;48.168;20.776;2024-01-10T05:06:02;-7.89;77.00
83405;SHT30;73331;48.168;20.776;2024-01-10T05:07:32;-7.89;77.13
83405;SHT30;73331;48.168;20.776;2024-01-10T05:09:03;-7.89;76.82
83405;SHT30;73331;48.168;20.776;2024-01-10T05:10:34;-8.02;77.40
83405;SHT30;73331;48.168;20.776;2024-01-10T05:12:05;-8.30;78.60
83405;SHT30;73331;48.168;20.776;2024-01-10T05:13:36;-7.96;78.08
83405;SHT30;73331;48.168;20.776;2024-01-10T05:15:07;-7.96;77.43
83405;SHT30;73331;48.168;20.776;2024-01-10T05:16:38;-7.85;77.23
83405;SHT30;73331;48.168;20.776;2024-01-10T05:18:09;-7.78;76.98
83405;SHT30;73331;48.168;20.776;2024-01-10T05:19:40;-7.78;76.81
83405;SHT30;73331;48.168;20.776;2024-01-10T05:21:11;-7.72;76.46
83405;SHT30;73331;48.168;20.776;2024-01-10T05:22:42;-7.71;76.25
83405;SHT30;73331;48.168;20.776;2024-01-10T05:24:12;-7.81;76.41
83405;SHT30;73331;48.168;20.776;2024-01-10T05:25:43;-7.85;76.83
83405;SHT30;73331;48.168;20.776;2024-01-10T05:27:13;-8.14;77.85
83405;SHT30;73331;48.168;20.776;2024-01-10T05:28:44;-7.96;77.59
83405;SHT30;73331;48.168;20.776;2024-01-10T05:30:14;-8.17;78.02
83405;SHT30;73331;48.168;20.776;2024-01-10T05:31:45;-8.20;78.10
83405;SHT30;73331;48.168;20.776;2024-01-10T05:33:16;-8.24;78.56
83405;SHT30;73331;48.168;20.776;2024-01-10T05:34:47;-8.61;79.97
83405;SHT30;73331;48.168;20.776;2024-01-10T05:36:21;-8.65;80.54
83405;SHT30;73331;48.168;20.776;2024-01-10T05:37:52;-8.80;81.23
83405;SHT30;73331;48.168;20.776;2024-01-10T05:39:24;-8.88;81.65
83405;SHT30;73331;48.168;20.776;2024-01-10T05:40:55;-8.81;82.09
83405;SHT30;73331;48.168;20.776;2024-01-10T05:42:25;-8.78;81.50
83405;SHT30;73331;48.168;20.776;2024-01-10T05:43:56;-8.80;81.51
83405;SHT30;73331;48.168;20.776;2024-01-10T05:45:29;-8.60;81.14
83405;SHT30;73331;48.168;20.776;2024-01-10T05:47:00;-8.37;80.09
83405;SHT30;73331;48.168;20.776;2024-01-10T05:48:30;-8.10;79.07
83405;SHT30;73331;48.168;20.776;2024-01-10T05:50:02;-8.19;78.62
83405;SHT30;73331;48.168;20.776;2024-01-10T05:51:36;-8.13;78.48
83405;SHT30;73331;48.168;20.776;2024-01-10T05:53:07;-8.57;79.62
83405;SHT30;73331;48.168;20.776;2024-01-10T05:54:39;-8.36;80.18
83405;SHT30;73331;48.168;20.776;2024-01-10T05:56:09;-8.38;79.78
83405;SHT30;73331;48.168;20.776;2024-01-10T05:57:40;-8.67;80.36
83405;SHT30;73331;48.168;20.776;2024-01-10T05:59:10;-8.61;80.62
83405;SHT30;73331;48.168;20.776;2024-01-10T06:00:41;-8.71;80.86
83405;SHT30;73331;48.168;20.776;2024-01-10T06:02:12;-8.48;80.01
83405;SHT30;73331;48.168;20.776;2024-01-10T06:03:42;-8.07;79.11
83405;SHT30;73331;48.168;20.776;2024-01-10T06:05:13;-8.19;78.62
83405;SHT30;73331;48.168;20.776;2024-01-10T06:06:43;-8.47;79.71
83405;SHT30;73331;48.168;20.776;2024-01-10T06:08:15;-8.67;80.20
83405;SHT30;73331;48.168;20.776;2024-01-10T06:09:46;-8.74;81.20
83405;SHT30;73331;48.168;20.776;2024-01-10T06:11:17;-8.72;81.64
83405;SHT30;73331;48.168;20.776;2024-01-10T06:12:48;-8.84;81.59
83405;SHT30;73331;48.168;20.776;2024-01-10T06:14:19;-8.87;81.80
83405;SHT30;73331;48.168;20.776;2024-01-10T06:15:49;-8.80;81.58
83405;SHT30;73331;48.168;20.776;2024-01-10T06:17:21;-8.84;81.55
83405;SHT30;73331;48.168;20.776;2024-01-10T06:18:51;-8.89;81.98
83405;SHT30;73331;48.168;20.776;2024-01-10T06:20:22;-8.87;81.97
83405;SHT30;73331;48.168;20.776;2024-01-10T06:21:52;-8.91;82.20
83405;SHT30;73331;48.168;20.776;2024-01-10T06:23:23;-8.92;82.40
83405;SHT30;73331;48.168;20.776;2024-01-10T06:24:54;-8.91;82.46
83405;SHT30;73331;48.168;20.776;2024-01-10T06:26:24;-8.85;82.64
83405;SHT30;73331;48.168;20.776;2024-01-10T06:27:55;-8.88;82.47
83405;SHT30;73331;48.168;20.776;2024-01-10T06:29:25;-8.91;82.54
83405;SHT30;73331;48.168;20.776;2024-01-10T06:30:56;-8.77;82.01
83405;SHT30;73331;48.168;20.776;2024-01-10T06:32:27;-8.88;81.93
83405;SHT30;73331;48.168;20.776;2024-01-10T06:33:57;-8.87;82.02
83405;SHT30;73331;48.168;20.776;2024-01-10T06:35:28;-8.78;81.67
83405;SHT30;73331;48.168;20.776;2024-01-10T06:36:59;-8.40;80.91
83405;SHT30;73331;48.168;20.776;2024-01-10T06:38:30;-8.17;79.73
83405;SHT30;73331;48.168;20.776;2024-01-10T06:40:01;-7.90;77.98
83405;SHT30;73331;48.168;20.776;2024-01-10T06:41:31;-7.85;77.67
83405;SHT30;73331;48.168;20.776;2024-01-10T06:43:05;-7.92;77.65
83405;SHT30;73331;48.168;20.776;2024-01-10T06:44:38;-7.60;76.82
83405;SHT30;73331;48.168;20.776;2024-01-10T06:46:09;-7.34;75.79
83405;SHT30;73331;48.168;20.776;2024-01-10T06:47:41;-7.27;75.28
83405;SHT30;73331;48.168;20.776;2024-01-10T06:49:12;-7.05;74.09
83405;SHT30;73331;48.168;20.776;2024-01-10T06:50:42;-7.04;73.72
83405;SHT30;73331;48.168;20.776;2024-01-10T06:52:14;-7.54;75.02
83405;SHT30;73331;48.168;20.776;2024-01-10T06:53:45;-7.85;77.05
83405;SHT30;73331;48.168;20.776;2024-01-10T06:55:15;-8.09;77.87
83405;SHT30;73331;48.168;20.776;2024-01-10T06:56:46;-8.20;78.56
83405;SHT30;73331;48.168;20.776;2024-01-10T06:58:17;-8.24;78.60
83405;SHT30;73331;48.168;20.776;2024-01-10T06:59:48;-8.14;78.60
83405;SHT30;73331;48.168;20.776;2024-01-10T07:01:19;-8.11;78.33
83405;SHT30;73331;48.168;20.776;2024-01-10T07:02:52;-8.20;78.10
83405;SHT30;73331;48.168;20.776;2024-01-10T07:04:23;-8.19;78.32
83405;SHT30;73331;48.168;20.776;2024-01-10T07:05:54;-8.14;78.35
83405;SHT30;73331;48.168;20.776;2024-01-10T07:07:27;-8.07;78.14
83405;SHT30;73331;48.168;20.776;2024-01-10T07:08:58;-8.06;78.19
83405;SHT30;73331;48.168;20.776;2024-01-10T07:10:29;-7.90;77.74
83405;SHT30;73331;48.168;20.776;2024-01-10T07:11:59;-7.78;77.28
83405;SHT30;73331;48.168;20.776;2024-01-10T07:13:30;-7.79;77.45
83405;SHT30;73331;48.168;20.776;2024-01-10T07:15:01;-7.63;77.51
83405;SHT30;73331;48.168;20.776;2024-01-10T07:16:35;-7.59;77.07
83405;SHT30;73331;48.168;20.776;2024-01-10T07:18:06;-7.56;77.19
83405;SHT30;73331;48.168;20.776;2024-01-10T07:19:37;-7.35;76.81
83405;SHT30;73331;48.168;20.776;2024-01-10T07:21:08;-7.35;76.78
83405;SHT30;73331;48.168;20.776;2024-01-10T07:22:39;-7.34;76.93
83405;SHT30;73331;48.168;20.776;2024-01-10T07:24:14;-7.05;76.28
83405;SHT30;73331;48.168;20.776;2024-01-10T07:25:45;-7.08;76.19
83405;SHT30;73331;48.168;20.776;2024-01-10T07:27:15;-7.10;76.53
83405;SHT30;73331;48.168;20.776;2024-01-10T07:28:46;-7.10;76.69
83405;SHT30;73331;48.168;20.776;2024-01-10T07:30:16;-7.03;76.46
83405;SHT30;73331;48.168;20.776;2024-01-10T07:31:47;-7.01;76.55
83405;SHT30;73331;48.168;20.776;2024-01-10T07:33:17;-6.94;76.27
83405;SHT30;73331;48.168;20.776;2024-01-10T07:34:48;-6.80;75.31
83405;SHT30;73331;48.168;20.776;2024-01-10T07:36:19;-6.80;75.68
83405;SHT30;73331;48.168;20.776;2024-01-10T07:37:49;-6.76;75.20
83405;SHT30;73331;48.168;20.776;2024-01-10T07:39:20;-6.53;74.62
83405;SHT30;73331;48.168;20.776;2024-01-10T07:40:50;-5.90;72.47
83405;SHT30;73331;48.168;20.776;2024-01-10T07:42:21;-5.43;70.32
83405;SHT30;73331;48.168;20.776;2024-01-10T07:43:51;-5.66;70.08
83405;SHT30;73331;48.168;20.776;2024-01-10T07:45:22;-6.02;71.57
83405;SHT30;73331;48.168;20.776;2024-01-10T07:46:53;-5.99;71.92
83405;SHT30;73331;48.168;20.776;2024-01-10T07:48:25;-6.12;72.42
83405;SHT30;73331;48.168;20.776;2024-01-10T07:49:56;-6.24;73.38
83405;SHT30;73331;48.168;20.776;2024-01-10T07:51:26;-6.25;73.70
83405;SHT30;73331;48.168;20.776;2024-01-10T07:52:57;-6.09;73.14
83405;SHT30;73331;48.168;20.776;2024-01-10T07:54:27;-5.97;72.77
83405;SHT30;73331;48.168;20.776;2024-01-10T07:55:58;-5.85;72.44
83405;SHT30;73331;48.168;20.776;2024-01-10T07:57:29;-5.97;72.18
83405;SHT30;73331;48.168;20.776;2024-01-10T07:58:59;-5.81;72.06
83405;SHT30;73331;48.168;20.776;2024-01-10T08:00:30;-5.78;72.01
83405;SHT30;73331;48.168;20.776;2024-01-10T08:02:01;-5.77;71.48
83405;SHT30;73331;48.168;20.776;2024-01-10T08:03:32;-5.67;72.27
83405;SHT30;73331;48.168;20.776;2024-01-10T08:05:04;-5.69;72.07
83405;SHT30;73331;48.168;20.776;2024-01-10T08:06:41;-5.61;71.94
83405;SHT30;73331;48.168;20.776;2024-01-10T08:08:12;-5.46;71.25
83405;SHT30;73331;48.168;20.776;2024-01-10T08:09:44;-5.50;71.21
83405;SHT30;73331;48.168;20.776;2024-01-10T08:11:16;-5.06;69.98
83405;SHT30;73331;48.168;20.776;2024-01-10T08:12:47;-4.91;68.24
83405;SHT30;73331;48.168;20.776;2024-01-10T08:14:17;-5.09;69.42
83405;SHT30;73331;48.168;20.776;2024-01-10T08:15:48;-4.89;69.48
83405;SHT30;73331;48.168;20.776;2024-01-10T08:17:19;-4.74;69.29
83405;SHT30;73331;48.168;20.776;2024-01-10T08:18:50;-4.71;67.74
83405;SHT30;73331;48.168;20.776;2024-01-10T08:20:21;-4.78;67.26
83405;SHT30;73331;48.168;20.776;2024-01-10T08:21:53;-4.54;66.38
83405;SHT30;73331;48.168;20.776;2024-01-10T08:23:23;-3.97;65.53
83405;SHT30;73331;48.168;20.776;2024-01-10T08:24:54;-3.99;64.67
83405;SHT30;73331;48.168;20.776;2024-01-10T08:26:26;-3.80;64.74
83405;SHT30;73331;48.168;20.776;2024-01-10T08:27:57;-3.75;64.56
83405;SHT30;73331;48.168;20.776;2024-01-10T08:29:28;-3.22;64.37
83405;SHT30;73331;48.168;20.776;2024-01-10T08:31:01;-3.14;64.21
83405;SHT30;73331;48.168;20.776;2024-01-10T08:32:32;-3.14;63.81
83405;SHT30;73331;48.168;20.776;2024-01-10T08:34:05;-3.39;65.35
83405;SHT30;73331;48.168;20.776;2024-01-10T08:35:36;-3.89;66.69
83405;SHT30;73331;48.168;20.776;2024-01-10T08:37:06;-3.72;66.51
83405;SHT30;73331;48.168;20.776;2024-01-10T08:38:38;-3.76;66.58
83405;SHT30;73331;48.168;20.776;2024-01-10T08:40:10;-3.91;67.12
83405;SHT30;73331;48.168;20.776;2024-01-10T08:41:43;-3.83;66.60
83405;SHT30;73331;48.168;20.776;2024-01-10T08:43:14;-3.80;67.28
83405;SHT30;73331;48.168;20.776;2024-01-10T08:44:45;-4.00;67.04
83405;SHT30;73331;48.168;20.776;2024-01-10T08:46:16;-4.04;67.72
83405;SHT30;73331;48.168;20.776;2024-01-10T08:47:47;-3.99;67.75
83405;SHT30;73331;48.168;20.776;2024-01-10T08:49:18;-3.83;68.29
83405;SHT30;73331;48.168;20.776;2024-01-10T08:50:50;-3.44;66.76
83405;SHT30;73331;48.168;20.776;2024-01-10T08:52:21;-3.63;66.73
83405;SHT30;73331;48.168;20.776;2024-01-10T08:53:51;-3.54;65.21
83405;SHT30;73331;48.168;20.776;2024-01-10T08:55:23;-3.54;62.78
83405;SHT30;73331;48.168;20.776;2024-01-10T08:56:53;-4.09;64.31
83405;SHT30;73331;48.168;20.776;2024-01-10T08:58:24;-3.94;61.56
83405;SHT30;73331;48.168;20.776;2024-01-10T08:59:55;-4.07;63.98
83405;SHT30;73331;48.168;20.776;2024-01-10T09:01:25;-3.83;62.73
83405;SHT30;73331;48.168;20.776;2024-01-10T09:02:56;-3.70;62.53
83405;SHT30;73331;48.168;20.776;2024-01-10T09:04:26;-3.66;62.24
83405;SHT30;73331;48.168;20.776;2024-01-10T09:05:57;-3.94;62.67
83405;SHT30;73331;48.168;20.776;2024-01-10T09:07:27;-4.03;64.45
83405;SHT30;73331;48.168;20.776;2024-01-10T09:08:58;-3.89;64.81
83405;SHT30;73331;48.168;20.776;2024-01-10T09:10:29;-3.68;64.23
83405;SHT30;73331;48.168;20.776;2024-01-10T09:12:00;-3.72;63.84
83405;SHT30;73331;48.168;20.776;2024-01-10T09:13:30;-3.62;63.34
83405;SHT30;73331;48.168;20.776;2024-01-10T09:15:01;-3.41;63.62
83405;SHT30;73331;48.168;20.776;2024-01-10T09:16:31;-3.35;63.14
83405;SHT30;73331;48.168;20.776;2024-01-10T09:18:02;-3.32;63.33
83405;SHT30;73331;48.168;20.776;2024-01-10T09:19:33;-3.60;64.92
83405;SHT30;73331;48.168;20.776;2024-01-10T09:21:04;-3.44;64.22
83405;SHT30;73331;48.168;20.776;2024-01-10T09:22:35;-3.19;63.58
83405;SHT30;73331;48.168;20.776;2024-01-10T09:24:05;-3.08;63.53